Time;durP1;ratioP1;P1;durP2;ratioP2;P2;SDS_P1;SDS_P2;PMS_P1;PMS_P2;Temp;Humidity;BMP_temperature;BMP_pressure;BME280_temperature;BME280_humidity;BME280_pressure;Samples;Min_cycle;Max_cycle;Signal;HPM_P1;HPM_P2
2022/10/04 00:01:06;;;;;;;0.00;0.00;;;;;;;7.16;100.00;99375.97;4968076;28;20232;-68
2022/10/04 00:03:37;;;;;;;0.00;0.00;;;;;;;7.07;100.00;99363.66;4980139;28;20556;-68
2022/10/04 00:06:12;;;;;;;0.00;0.00;;;;;;;7.00;100.00;99371.03;4952630;28;20240;-68
2022/10/04 00:08:45;;;;;;;0.00;0.00;;;;;;;7.11;100.00;99365.09;4980489;28;21134;-68
2022/10/04 00:11:17;;;;;;;0.00;0.00;;;;;;;7.04;100.00;99362.09;4978333;28;20701;-68
2022/10/04 00:13:50;;;;;;;0.00;0.00;;;;;;;6.94;100.00;99366.28;4979713;28;20242;-68
2022/10/04 00:16:24;;;;;;;0.00;0.00;;;;;;;6.96;100.00;99366.19;4978143;28;20359;-68
2022/10/04 00:19:01;;;;;;;0.00;0.00;;;;;;;6.92;100.00;99357.75;4981532;28;20716;-68
2022/10/04 00:22:11;;;;;;;0.00;0.00;;;;;;;6.93;100.00;99360.25;4950427;28;20782;-68
2022/10/04 00:24:58;;;;;;;0.00;0.00;;;;;;;6.86;100.00;99351.25;4977793;28;20229;-68
2022/10/04 00:27:26;;;;;;;0.00;0.00;;;;;;;6.79;100.00;99353.47;4968521;28;20299;-68
2022/10/04 00:30:21;;;;;;;0.00;0.00;;;;;;;6.76;100.00;99358.88;4961028;28;20235;-68
2022/10/04 00:33:00;;;;;;;0.00;0.00;;;;;;;6.79;100.00;99353.47;4962727;28;20609;-68
2022/10/04 00:35:49;;;;;;;0.00;0.00;;;;;;;6.79;100.00;99337.91;4977721;28;20275;-68
2022/10/04 00:38:24;;;;;;;0.00;0.00;;;;;;;6.74;100.00;99340.00;4976608;28;20324;-68
2022/10/04 00:40:57;;;;;;;0.00;0.00;;;;;;;6.75;100.00;99344.25;4979939;28;20232;-69
2022/10/04 00:43:28;;;;;;;0.00;0.00;;;;;;;6.83;100.00;99333.31;4979046;28;20306;-68
2022/10/04 00:45:58;;;;;;;0.00;0.00;;;;;;;6.83;100.00;99324.72;4976103;28;20233;-68
2022/10/04 00:48:35;;;;;;;0.00;0.00;;;;;;;6.84;100.00;99324.59;4979626;28;20237;-68
2022/10/04 00:51:12;;;;;;;0.00;0.00;;;;;;;6.78;100.00;99323.28;4975239;28;20224;-68
2022/10/04 00:53:50;;;;;;;0.00;0.00;;;;;;;6.71;100.00;99328.97;4979416;28;20727;-68
2022/10/04 00:56:24;;;;;;;0.00;0.00;;;;;;;6.70;100.00;99325.56;4966611;28;20248;-68
2022/10/04 00:59:12;;;;;;;0.00;0.00;;;;;;;6.65;100.00;99320.69;4971255;28;20232;-68
2022/10/04 01:01:38;;;;;;;0.00;0.00;;;;;;;6.69;100.00;99336.88;4957435;28;20506;-68
2022/10/04 01:04:23;;;;;;;0.00;0.00;;;;;;;6.64;100.00;99336.38;4940673;28;20296;-68
2022/10/04 01:06:50;;;;;;;0.00;0.00;;;;;;;6.66;100.00;99329.31;4979304;28;20886;-68
2022/10/04 01:09:20;;;;;;;0.00;0.00;;;;;;;6.73;100.00;99334.91;4977070;28;20229;-68
2022/10/04 01:11:56;;;;;;;0.00;0.00;;;;;;;6.65;100.00;99331.06;4983952;28;20292;-68
2022/10/04 01:14:35;;;;;;;0.00;0.00;;;;;;;6.61;100.00;99327.03;4972467;28;20236;-69
2022/10/04 01:17:03;;;;;;;0.00;0.00;;;;;;;6.60;100.00;99321.97;4980984;28;20228;-69
2022/10/04 01:19:31;;;;;;;0.00;0.00;;;;;;;6.60;100.00;99319.38;4984577;28;20251;-64
2022/10/04 01:22:08;;;;;;;0.00;0.00;;;;;;;6.69;100.00;99320.47;4984947;28;20236;-64
2022/10/04 01:24:37;;;;;;;0.00;0.00;;;;;;;6.66;100.00;99321.53;4993088;28;20255;-64
2022/10/04 01:27:24;;;;;;;0.00;0.00;;;;;;;6.62;100.00;99318.31;4986548;28;20636;-64
2022/10/04 01:29:51;;;;;;;0.00;0.00;;;;;;;6.58;100.00;99319.47;4990881;28;20624;-64
2022/10/04 01:32:17;;;;;;;0.10;0.10;;;;;;;6.57;100.00;99317.81;4987839;28;20241;-64
2022/10/04 01:34:44;;;;;;;0.00;0.00;;;;;;;6.60;100.00;99319.38;4990038;28;20283;-64
2022/10/04 01:37:13;;;;;;;0.00;0.00;;;;;;;6.67;100.00;99311.97;4985672;28;20229;-63
2022/10/04 01:39:41;;;;;;;0.00;0.00;;;;;;;6.61;100.00;99308.88;4972191;28;20633;-63
2022/10/04 01:42:11;;;;;;;0.00;0.00;;;;;;;6.57;100.00;99306.63;4985774;28;20348;-63
2022/10/04 01:44:43;;;;;;;0.00;0.00;;;;;;;6.58;100.00;99300.50;4990825;28;20268;-63
2022/10/04 01:47:14;;;;;;;0.00;0.00;;;;;;;6.62;100.00;99307.94;4989768;28;20221;-63
2022/10/04 01:49:43;;;;;;;0.00;0.00;;;;;;;6.58;100.00;99306.50;4989905;28;20237;-63
2022/10/04 01:52:17;;;;;;;0.00;0.00;;;;;;;6.57;100.00;99302.25;4986654;28;20283;-63
2022/10/04 01:54:48;;;;;;;0.00;0.00;;;;;;;6.48;100.00;99303.75;4989619;28;20267;-63
2022/10/04 01:57:17;;;;;;;0.00;0.00;;;;;;;6.46;100.00;99304.78;4985999;28;20233;-63
2022/10/04 01:59:51;;;;;;;0.03;0.03;;;;;;;6.46;100.00;99297.00;4991461;28;20774;-63
2022/10/04 02:02:27;;;;;;;0.03;0.03;;;;;;;6.41;100.00;99294.72;4980432;28;20236;-63
2022/10/04 02:04:57;;;;;;;0.00;0.00;;;;;;;6.40;100.00;99297.41;4985736;28;20232;-63
2022/10/04 02:07:28;;;;;;;0.00;0.00;;;;;;;6.40;100.00;99287.88;4988795;28;20303;-63
2022/10/04 02:10:00;;;;;;;0.00;0.00;;;;;;;6.29;100.00;99287.81;4976524;28;20237;-63
2022/10/04 02:12:30;;;;;;;0.00;0.00;;;;;;;6.30;100.00;99290.31;4989832;28;20652;-63
2022/10/04 02:15:00;;;;;;;0.00;0.00;;;;;;;6.29;100.00;99295.59;4986952;28;20233;-63
2022/10/04 02:17:30;;;;;;;0.00;0.00;;;;;;;6.38;100.00;99284.56;4989048;28;20229;-64
2022/10/04 02:19:58;;;;;;;0.00;0.00;;;;;;;6.34;100.00;99291.75;4986532;28;20240;-63
2022/10/04 02:22:26;;;;;;;0.00;0.00;;;;;;;6.27;100.00;99287.94;4986691;28;20604;-63
2022/10/04 02:24:55;;;;;;;0.00;0.00;;;;;;;6.24;100.00;99282.97;4987067;28;20287;-63
2022/10/04 02:27:29;;;;;;;0.00;0.00;;;;;;;6.25;100.00;99281.19;4987376;28;20287;-64
2022/10/04 02:30:00;;;;;;;0.07;0.07;;;;;;;6.16;100.00;99280.88;4985193;28;20242;-64
2022/10/04 02:35:15;;;;;;;0.00;0.00;;;;;;;6.20;100.00;99268.53;4985417;28;20236;-63
2022/10/04 02:37:41;;;;;;;0.00;0.00;;;;;;;6.20;100.00;99268.53;4990792;28;20232;-63
2022/10/04 02:40:13;;;;;;;0.00;0.00;;;;;;;6.21;100.00;99270.22;4987037;28;20237;-63
2022/10/04 02:42:49;;;;;;;0.00;0.00;;;;;;;6.22;100.00;99278.78;4992998;28;20279;-63
2022/10/04 02:45:21;;;;;;;0.00;0.00;;;;;;;6.15;100.00;99276.63;4987128;28;20236;-63
2022/10/04 02:47:54;;;;;;;0.10;0.10;;;;;;;6.10;100.00;99281.31;4986653;28;20660;-63
2022/10/04 02:50:29;;;;;;;0.00;0.00;;;;;;;6.16;100.00;99278.28;4985554;28;20225;-63
2022/10/04 02:53:00;;;;;;;0.00;0.00;;;;;;;6.17;100.00;99277.34;4984800;28;20327;-63
2022/10/04 02:55:30;;;;;;;0.00;0.00;;;;;;;6.12;100.00;99271.66;4987229;28;20225;-63
2022/10/04 02:58:00;;;;;;;0.00;0.00;;;;;;;6.09;100.00;99269.28;4986494;28;20629;-63
2022/10/04 03:00:29;;;;;;;0.00;0.00;;;;;;;6.11;100.00;99272.59;4990734;28;20311;-63
2022/10/04 03:03:15;;;;;;;0.00;0.00;;;;;;;6.09;100.00;99276.25;4985029;28;20264;-63
2022/10/04 03:05:45;;;;;;;0.00;0.00;;;;;;;6.02;100.00;99275.81;4990594;28;20322;-63
2022/10/04 03:08:12;;;;;;;0.00;0.00;;;;;;;6.01;100.00;99277.59;4989203;28;20245;-63
2022/10/04 03:10:41;;;;;;;0.00;0.00;;;;;;;5.93;100.00;99273.81;4989529;28;20233;-63
2022/10/04 03:13:10;;;;;;;0.00;0.00;;;;;;;5.93;100.00;99276.41;4986155;28;20227;-63
2022/10/04 03:15:38;;;;;;;0.00;0.00;;;;;;;6.02;100.00;99266.28;4970324;28;20225;-64
2022/10/04 03:18:05;;;;;;;0.00;0.00;;;;;;;5.97;100.00;99270.94;4984849;28;20233;-64
2022/10/04 03:20:36;;;;;;;0.00;0.00;;;;;;;5.93;100.00;99271.22;4989173;28;20233;-64
2022/10/04 03:23:04;;;;;;;0.00;0.00;;;;;;;5.96;100.00;99261.50;4987176;28;20288;-64
2022/10/04 03:25:39;;;;;;;0.00;0.00;;;;;;;6.04;100.00;99261.84;4987216;28;20241;-64
2022/10/04 03:28:07;;;;;;;0.00;0.00;;;;;;;5.99;100.00;99266.47;4987926;28;20628;-64
2022/10/04 03:30:36;;;;;;;0.07;0.07;;;;;;;6.05;100.00;99265.25;4988984;28;20709;-64
2022/10/04 03:33:03;;;;;;;0.00;0.00;;;;;;;6.10;100.00;99262.34;4984806;28;20237;-64
2022/10/04 03:35:34;;;;;;;0.00;0.00;;;;;;;6.12;100.00;99263.06;4989243;28;20244;-64
2022/10/04 03:38:07;;;;;;;0.00;0.00;;;;;;;6.07;100.00;99258.19;4985052;28;20709;-63
2022/10/04 03:40:37;;;;;;;0.00;0.00;;;;;;;6.05;100.00;99258.31;4987670;28;20237;-63
2022/10/04 03:43:05;;;;;;;0.00;0.00;;;;;;;6.04;100.00;99258.41;4984726;28;20225;-63
2022/10/04 03:45:34;;;;;;;0.00;0.00;;;;;;;6.08;100.00;99261.63;4987538;28;20244;-63
2022/10/04 03:48:05;;;;;;;0.00;0.00;;;;;;;6.11;100.00;99253.63;4984265;28;20279;-64
2022/10/04 03:50:36;;;;;;;0.00;0.00;;;;;;;6.22;100.00;99261.50;4987821;28;20229;-64
2022/10/04 03:53:09;;;;;;;0.00;0.00;;;;;;;6.16;100.00;99249.78;4985320;28;20260;-63
2022/10/04 03:55:42;;;;;;;0.00;0.00;;;;;;;6.12;100.00;99255.28;4971146;28;20237;-64
2022/10/04 03:58:11;;;;;;;0.00;0.00;;;;;;;6.14;100.00;99256.00;4986685;28;20688;-63
2022/10/04 04:00:43;;;;;;;0.00;0.00;;;;;;;6.13;100.00;99256.94;4975699;28;20328;-63
2022/10/04 04:03:19;;;;;;;0.00;0.00;;;;;;;6.10;100.00;99254.56;4985093;28;20244;-63
2022/10/04 04:05:49;;;;;;;0.00;0.00;;;;;;;6.06;100.00;99251.34;4986869;28;20286;-63
2022/10/04 04:08:26;;;;;;;0.00;0.00;;;;;;;6.06;100.00;99243.56;4983659;28;20228;-63
2022/10/04 04:10:55;;;;;;;0.00;0.00;;;;;;;6.03;100.00;99252.41;4985428;28;20232;-63
2022/10/04 04:13:26;;;;;;;0.00;0.00;;;;;;;6.12;100.00;99250.09;4987889;28;20233;-63
2022/10/04 04:15:56;;;;;;;0.00;0.00;;;;;;;6.02;100.00;99245.56;4986539;28;20229;-63
2022/10/04 04:18:24;;;;;;;0.00;0.00;;;;;;;5.93;100.00;99246.16;4984474;28;20232;-63
2022/10/04 04:20:57;;;;;;;0.07;0.07;;;;;;;5.90;100.00;99248.97;4987121;28;20237;-63
2022/10/04 04:23:27;;;;;;;0.00;0.00;;;;;;;5.90;100.00;99247.19;4984433;28;20284;-63
2022/10/04 04:25:56;;;;;;;0.00;0.00;;;;;;;5.93;100.00;99248.75;4984595;28;20264;-63
2022/10/04 04:28:26;;;;;;;0.00;0.00;;;;;;;5.91;100.00;99255.81;4986610;28;20273;-63
2022/10/04 04:31:00;;;;;;;0.00;0.00;;;;;;;5.94;100.00;99250.41;4983357;28;20597;-63
2022/10/04 04:33:31;;;;;;;0.00;0.00;;;;;;;5.90;100.00;99247.19;4986272;28;20229;-63
2022/10/04 04:36:05;;;;;;;0.00;0.00;;;;;;;5.81;100.00;99255.63;4983821;28;20307;-63
2022/10/04 04:38:31;;;;;;;0.00;0.00;;;;;;;5.73;100.00;99256.13;4985140;28;20324;-63
2022/10/04 04:41:09;;;;;;;0.00;0.00;;;;;;;5.72;100.00;99258.84;4986536;28;20335;-63
2022/10/04 04:43:36;;;;;;;0.00;0.00;;;;;;;5.74;100.00;99255.19;4987128;28;20240;-63
2022/10/04 04:46:09;;;;;;;0.00;0.00;;;;;;;5.71;100.00;99265.75;4982720;28;20237;-63
2022/10/04 04:48:37;;;;;;;0.00;0.00;;;;;;;5.71;100.00;99273.53;4990237;28;20247;-63
2022/10/04 04:51:04;;;;;;;0.00;0.00;;;;;;;5.74;100.00;99269.91;4984276;28;21147;-63
2022/10/04 04:53:32;;;;;;;0.00;0.00;;;;;;;5.69;100.00;99272.00;4986874;28;20791;-63
2022/10/04 04:56:01;;;;;;;0.00;0.00;;;;;;;5.65;100.00;99273.13;4982370;28;20287;-63
2022/10/04 04:58:31;;;;;;;0.00;0.00;;;;;;;5.70;100.00;99268.47;4986872;28;20233;-63
2022/10/04 05:01:01;;;;;;;0.00;0.00;;;;;;;5.68;100.00;99263.38;4983337;28;20235;-63
2022/10/04 05:03:29;;;;;;;0.10;0.10;;;;;;;5.75;100.00;99264.63;4986681;28;20295;-63
2022/10/04 05:06:01;;;;;;;0.00;0.00;;;;;;;5.70;100.00;99261.50;4985452;28;20264;-63
2022/10/04 05:08:30;;;;;;;0.00;0.00;;;;;;;5.72;100.00;99258.84;4986570;28;20221;-63
2022/10/04 05:11:04;;;;;;;0.00;0.00;;;;;;;5.69;100.00;99257.25;4983858;28;20233;-63
2022/10/04 05:13:36;;;;;;;0.10;0.10;;;;;;;5.67;100.00;99255.72;4986797;28;20239;-63
2022/10/04 05:16:02;;;;;;;0.00;0.00;;;;;;;5.68;100.00;99252.19;4983595;28;20315;-63
2022/10/04 05:18:33;;;;;;;0.10;0.10;;;;;;;5.69;100.00;99254.66;4986674;28;20229;-63
2022/10/04 05:21:07;;;;;;;0.00;0.00;;;;;;;5.73;100.00;99271.66;4982967;28;20247;-63
2022/10/04 05:23:34;;;;;;;0.00;0.00;;;;;;;5.75;100.00;99267.22;4986633;28;20238;-63
2022/10/04 05:26:03;;;;;;;0.00;0.00;;;;;;;5.75;100.00;99274.97;4983572;28;20236;-63
2022/10/04 05:28:30;;;;;;;0.00;0.00;;;;;;;5.67;100.00;99279.03;4986626;28;20231;-63
2022/10/04 05:31:11;;;;;;;0.00;0.00;;;;;;;5.62;100.00;99276.75;4982754;28;20277;-63
2022/10/04 05:33:45;;;;;;;0.03;0.03;;;;;;;5.67;100.00;99284.22;4986243;28;20240;-63
2022/10/04 05:36:40;;;;;;;0.00;0.00;;;;;;;5.64;100.00;99287.81;4983700;28;20232;-63
2022/10/04 05:39:14;;;;;;;0.07;0.07;;;;;;;5.66;100.00;99293.72;4963753;28;20232;-63
2022/10/04 05:41:50;;;;;;;0.00;0.00;;;;;;;5.72;100.00;99293.31;4985675;28;20721;-63
2022/10/04 05:44:26;;;;;;;0.03;0.03;;;;;;;5.73;100.00;99291.56;4983054;28;20656;-63
2022/10/04 05:46:54;;;;;;;0.03;0.03;;;;;;;5.78;100.00;99301.63;4984509;28;20339;-63
2022/10/04 05:49:25;;;;;;;0.00;0.00;;;;;;;5.74;100.00;99294.03;4983683;28;20260;-63
2022/10/04 05:51:54;;;;;;;0.00;0.00;;;;;;;5.74;100.00;99306.19;4985403;28;20648;-63
2022/10/04 05:54:23;;;;;;;0.10;0.10;;;;;;;5.81;100.00;99301.41;4983108;28;20750;-63
2022/10/04 05:57:08;;;;;;;0.00;0.00;;;;;;;5.82;100.00;99303.06;4988185;28;20256;-63
2022/10/04 05:59:50;;;;;;;0.00;0.00;;;;;;;5.85;100.00;99305.44;4986890;28;20677;-63
2022/10/04 06:02:37;;;;;;;0.00;0.00;;;;;;;5.95;100.00;99311.66;4985561;28;20771;-63
2022/10/04 06:05:14;;;;;;;0.00;0.00;;;;;;;6.01;100.00;99313.88;4985110;28;20236;-63
2022/10/04 06:07:44;;;;;;;0.00;0.00;;;;;;;6.09;100.00;99322.91;4988378;28;20300;-63
2022/10/04 06:10:34;;;;;;;0.00;0.00;;;;;;;6.19;100.00;99316.97;4985367;28;20640;-63
2022/10/04 06:13:09;;;;;;;0.00;0.00;;;;;;;6.29;100.00;99313.72;4985302;28;20307;-63
2022/10/04 06:15:54;;;;;;;0.00;0.00;;;;;;;6.31;100.00;99312.72;4989728;28;20593;-63
2022/10/04 06:18:35;;;;;;;0.00;0.00;;;;;;;6.42;100.00;99318.88;4968278;28;20236;-63
2022/10/04 06:21:21;;;;;;;0.00;0.00;;;;;;;6.56;100.00;99310.16;4986180;28;20224;-63
2022/10/04 06:23:53;;;;;;;0.00;0.00;;;;;;;6.67;100.00;99293.81;4988658;28;20237;-63
2022/10/04 06:26:24;;;;;;;0.00;0.00;;;;;;;6.78;100.00;99301.66;4986539;28;20796;-63
2022/10/04 06:28:55;;;;;;;0.00;0.00;;;;;;;6.91;100.00;99304.19;4988817;28;20288;-63
2022/10/04 06:31:50;;;;;;;0.00;0.00;;;;;;;7.05;100.00;99293.66;4985787;28;20685;-63
2022/10/04 06:34:55;;;;;;;0.00;0.00;;;;;;;7.20;100.00;99291.72;4986129;28;20229;-63
2022/10/04 06:37:39;;;;;;;0.00;0.00;;;;;;;7.35;100.00;99299.31;4962347;28;20670;-63
2022/10/04 06:40:37;;;;;;;0.00;0.00;;;;;;;7.44;100.00;99305.59;4985212;28;20240;-63
2022/10/04 06:43:22;;;;;;;0.00;0.00;;;;;;;7.56;100.00;99309.03;4951998;28;20662;-63
2022/10/04 06:46:06;;;;;;;0.00;0.00;;;;;;;7.65;100.00;99314.38;4990654;28;20240;-63
2022/10/04 06:48:57;;;;;;;0.00;0.00;;;;;;;7.73;100.00;99320.78;4987106;28;20245;-63
2022/10/04 06:51:40;;;;;;;0.00;0.00;;;;;;;7.79;100.00;99315.94;4984906;28;20281;-63
2022/10/04 06:54:26;;;;;;;0.03;0.03;;;;;;;7.87;100.00;99317.13;4986112;28;20242;-63
2022/10/04 06:57:15;;;;;;;0.00;0.00;;;;;;;7.95;100.00;99315.59;4987964;28;20245;-63
2022/10/04 07:00:07;;;;;;;0.00;0.00;;;;;;;8.04;100.00;99318.44;4987643;28;20596;-63
2022/10/04 07:02:40;;;;;;;0.00;0.00;;;;;;;8.06;100.00;99319.16;4984941;28;20237;-63
2022/10/04 07:05:17;;;;;;;0.00;0.00;;;;;;;8.02;100.00;99313.38;4985931;28;20229;-63
2022/10/04 07:07:49;;;;;;;0.00;0.00;;;;;;;8.02;100.00;99330.72;4988998;28;20276;-63
2022/10/04 07:10:30;;;;;;;0.00;0.00;;;;;;;7.97;100.00;99323.28;4986540;28;20307;-63
2022/10/04 07:13:22;;;;;;;0.00;0.00;;;;;;;8.06;100.00;99325.19;4985540;28;20269;-63
2022/10/04 07:15:54;;;;;;;0.00;0.00;;;;;;;8.12;100.00;99334.28;4988838;28;20229;-63
2022/10/04 07:18:24;;;;;;;0.00;0.00;;;;;;;8.13;100.00;99326.38;4985874;28;20238;-63
2022/10/04 07:21:00;;;;;;;0.00;0.00;;;;;;;8.23;100.00;99330.88;4986647;28;20237;-63
2022/10/04 07:23:32;;;;;;;0.00;0.00;;;;;;;8.31;100.00;99327.66;4987272;28;20221;-63
2022/10/04 07:26:05;;;;;;;0.00;0.00;;;;;;;8.43;100.00;99321.50;4984794;28;20287;-63
2022/10/04 07:31:26;;;;;;;0.00;0.00;;;;;;;8.61;100.00;99332.28;4986000;28;20233;-63
2022/10/04 07:33:58;;;;;;;0.00;0.00;;;;;;;8.75;100.00;99332.97;4986258;28;20275;-63
2022/10/04 07:36:29;;;;;;;0.00;0.00;;;;;;;8.83;100.00;99335.78;4987288;28;20650;-63
2022/10/04 07:39:00;;;;;;;0.00;0.00;;;;;;;8.96;100.00;99335.66;4986088;28;20226;-63
2022/10/04 07:41:34;;;;;;;0.00;0.00;;;;;;;9.10;100.00;99334.53;4987585;28;20226;-63
2022/10/04 07:44:04;;;;;;;0.00;0.00;;;;;;;9.17;100.00;99338.28;4983720;28;20250;-62
2022/10/04 07:46:44;;;;;;;0.00;0.00;;;;;;;9.29;100.00;99334.69;4986866;28;20288;-62
2022/10/04 07:49:15;;;;;;;0.00;0.00;;;;;;;9.43;100.00;99323.13;4985949;28;20236;-62
2022/10/04 07:51:55;;;;;;;0.00;0.00;;;;;;;9.55;100.00;99325.69;4986952;28;20985;-62
2022/10/04 07:54:27;;;;;;;0.00;0.00;;;;;;;9.63;100.00;99319.81;4984308;28;20291;-62
2022/10/04 07:57:01;;;;;;;0.00;0.00;;;;;;;9.76;100.00;99330.88;4985983;28;20256;-62
2022/10/04 07:59:40;;;;;;;0.00;0.00;;;;;;;9.74;100.00;99328.41;4986888;28;20230;-62
2022/10/04 08:02:21;;;;;;;0.00;0.00;;;;;;;9.83;100.00;99329.41;4967550;28;20733;-66
2022/10/04 08:05:00;;;;;;;0.00;0.00;;;;;;;10.00;100.00;99329.78;4988163;28;20214;-66
2022/10/04 08:07:38;;;;;;;0.00;0.00;;;;;;;10.00;100.00;99338.44;4984577;28;20308;-66
2022/10/04 08:10:13;;;;;;;0.00;0.00;;;;;;;10.06;100.00;99339.69;4958859;28;20221;-67
2022/10/04 08:12:50;;;;;;;0.00;0.00;;;;;;;9.96;100.00;99337.06;4987384;28;20835;-66
2022/10/04 08:15:36;;;;;;;0.00;0.00;;;;;;;9.94;100.00;99335.50;4984472;28;20842;-66
2022/10/04 08:18:19;;;;;;;0.00;0.00;;;;;;;9.74;100.00;99336.25;4977862;28;20236;-65
2022/10/04 08:20:50;;;;;;;0.00;0.00;;;;;;;9.75;100.00;99344.88;4984776;28;20794;-65
2022/10/04 08:23:45;;;;;;;0.00;0.00;;;;;;;9.73;100.00;99336.34;4984194;28;20820;-65
2022/10/04 08:26:28;;;;;;;0.00;0.00;;;;;;;9.79;100.00;99335.84;4978902;28;20229;-65
2022/10/04 08:32:05;;;;;;;0.00;0.00;;;;;;;9.89;100.00;99339.34;4982741;28;20240;-65
2022/10/04 08:34:46;;;;;;;0.00;0.00;;;;;;;9.88;100.00;99345.50;4985797;28;20300;-65
2022/10/04 08:37:28;;;;;;;0.00;0.00;;;;;;;10.01;100.00;99349.69;4982617;28;20229;-65
2022/10/04 08:40:16;;;;;;;0.00;0.00;;;;;;;10.15;100.00;99349.34;4983047;28;20220;-65
2022/10/04 08:43:11;;;;;;;0.00;0.00;;;;;;;10.08;100.00;99347.38;4985483;28;20312;-65
2022/10/04 08:46:03;;;;;;;0.00;0.00;;;;;;;10.14;100.00;99342.50;4983232;28;20246;-65
2022/10/04 08:48:56;;;;;;;0.00;0.00;;;;;;;10.14;100.00;99350.31;4985429;28;20233;-65
2022/10/04 08:51:51;;;;;;;0.00;0.00;;;;;;;10.22;100.00;99348.84;4985454;28;20239;-65
2022/10/04 08:54:58;;;;;;;0.00;0.00;;;;;;;10.25;100.00;99351.19;4982719;28;20252;-65
2022/10/04 08:57:48;;;;;;;0.00;0.00;;;;;;;10.27;100.00;99347.47;4983755;28;20262;-65
2022/10/04 09:00:25;;;;;;;0.00;0.00;;;;;;;10.25;100.00;99343.34;4983959;28;20277;-65
2022/10/04 09:03:25;;;;;;;0.00;0.00;;;;;;;10.22;100.00;99339.22;4986666;28;20236;-65
2022/10/04 09:06:21;;;;;;;0.00;0.00;;;;;;;10.40;100.00;99339.47;4984972;28;20237;-65
2022/10/04 09:09:20;;;;;;;0.00;0.00;;;;;;;10.48;100.00;99346.63;4971192;28;20251;-65
2022/10/04 09:12:28;;;;;;;0.00;0.00;;;;;;;10.63;100.00;99349.69;4984773;28;20228;-65
2022/10/04 09:15:26;;;;;;;0.00;0.00;;;;;;;10.73;100.00;99342.69;4982858;28;20229;-65
2022/10/04 09:18:08;;;;;;;0.00;0.00;;;;;;;11.03;100.00;99346.19;4968145;28;20584;-65
2022/10/04 09:20:54;;;;;;;0.00;0.00;;;;;;;11.27;100.00;99339.75;4983750;28;20244;-65
2022/10/04 09:23:54;;;;;;;0.00;0.00;;;;;;;11.49;97.67;99349.09;4983092;28;20659;-65
2022/10/04 09:26:23;;;;;;;0.00;0.00;;;;;;;11.47;96.47;99343.16;4982846;28;20235;-65
2022/10/04 09:29:16;;;;;;;0.00;0.00;;;;;;;11.49;96.01;99337.81;4986360;28;20316;-65
2022/10/04 09:32:07;;;;;;;0.00;0.00;;;;;;;11.49;97.61;99348.28;4957860;28;20249;-65
2022/10/04 09:34:50;;;;;;;0.00;0.00;;;;;;;11.53;96.07;99341.81;4988060;28;20258;-65
2022/10/04 09:37:40;;;;;;;0.00;0.00;;;;;;;11.35;97.56;99339.03;4986897;28;20234;-66
2022/10/04 09:40:35;;;;;;;0.00;0.00;;;;;;;11.36;97.20;99338.94;4988382;28;20230;-66
2022/10/04 09:43:43;;;;;;;0.00;0.00;;;;;;;11.08;100.00;99336.16;4986406;28;20289;-66
2022/10/04 09:46:30;;;;;;;0.00;0.00;;;;;;;10.99;99.44;99336.97;4986319;28;20653;-66
2022/10/04 09:49:09;;;;;;;0.00;0.00;;;;;;;10.80;100.00;99337.78;4988530;28;20242;-66
2022/10/04 09:52:07;;;;;;;0.00;0.00;;;;;;;10.78;100.00;99345.75;4988395;28;20233;-66
2022/10/04 09:55:03;;;;;;;0.00;0.00;;;;;;;10.93;100.00;99348.81;4988424;28;20706;-66
2022/10/04 09:57:48;;;;;;;0.00;0.00;;;;;;;10.91;100.00;99349.88;4986664;28;20316;-66
2022/10/04 10:00:22;;;;;;;0.00;0.00;;;;;;;10.95;100.00;99348.66;4985790;28;20243;-66
2022/10/04 10:03:33;;;;;;;0.00;0.00;;;;;;;11.08;100.00;99351.84;4990479;28;20243;-66
2022/10/04 10:06:20;;;;;;;0.00;0.00;;;;;;;11.15;100.00;99346.88;4983555;28;20300;-66
2022/10/04 10:09:02;;;;;;;0.00;0.00;;;;;;;11.36;100.00;99344.16;4989762;28;20721;-66
2022/10/04 10:14:44;;;;;;;0.00;0.00;;;;;;;11.38;99.73;99346.63;4986508;28;20726;-66
2022/10/04 10:17:19;;;;;;;0.00;0.00;;;;;;;11.57;98.28;99342.34;4968995;28;20297;-66
2022/10/04 10:20:25;;;;;;;0.00;0.00;;;;;;;11.52;98.04;99350.63;4989473;28;20618;-66
2022/10/04 10:23:18;;;;;;;0.00;0.00;;;;;;;11.62;96.82;99353.19;4957816;28;20242;-66
2022/10/04 10:26:01;;;;;;;0.00;0.00;;;;;;;11.73;95.74;99349.59;4986090;28;20318;-66
2022/10/04 10:28:46;;;;;;;0.00;0.00;;;;;;;11.62;95.62;99343.59;4985994;28;20233;-66
2022/10/04 10:31:38;;;;;;;0.00;0.00;;;;;;;11.73;96.81;99347.81;4986799;28;20245;-66
2022/10/04 10:34:36;;;;;;;0.00;0.00;;;;;;;11.80;96.86;99348.91;4986203;28;20238;-66
2022/10/04 10:37:17;;;;;;;0.00;0.00;;;;;;;11.84;95.05;99349.44;4975033;28;20699;-66
2022/10/04 10:40:07;;;;;;;0.00;0.00;;;;;;;11.84;96.64;99351.25;4988353;28;20629;-66
2022/10/04 10:42:59;;;;;;;0.00;0.00;;;;;;;11.82;98.86;99343.53;4984414;28;20234;-66
2022/10/04 10:45:44;;;;;;;0.00;0.00;;;;;;;12.09;96.10;99336.75;4986363;28;20325;-66
2022/10/04 10:48:16;;;;;;;0.00;0.00;;;;;;;12.19;95.17;99327.06;4984821;28;20249;-66
2022/10/04 10:51:00;;;;;;;0.00;0.00;;;;;;;12.46;92.74;99329.84;4986009;28;20232;-66
2022/10/04 10:53:47;;;;;;;0.00;0.00;;;;;;;12.76;92.34;99327.88;4985402;28;20292;-66
2022/10/04 10:56:31;;;;;;;0.00;0.00;;;;;;;12.98;90.75;99329.25;4985284;28;20232;-66
2022/10/04 10:59:27;;;;;;;0.00;0.00;;;;;;;12.94;88.89;99327.88;4975850;28;20577;-66
2022/10/04 11:02:16;;;;;;;0.00;0.00;;;;;;;13.34;88.59;99323.16;4985039;28;20642;-66
2022/10/04 11:05:16;;;;;;;0.00;0.00;;;;;;;13.58;88.36;99317.31;4985060;28;20361;-66
2022/10/04 11:07:50;;;;;;;0.00;0.00;;;;;;;13.58;86.99;99320.75;4985015;28;20236;-66
2022/10/04 11:10:58;;;;;;;0.00;0.00;;;;;;;13.55;86.70;99321.06;4985451;28;20232;-66
2022/10/04 11:14:03;;;;;;;0.00;0.00;;;;;;;13.63;85.24;99322.94;4984852;28;20237;-66
2022/10/04 11:17:09;;;;;;;0.00;0.00;;;;;;;13.59;85.89;99318.97;4956964;28;20232;-66
2022/10/04 11:20:10;;;;;;;0.00;0.00;;;;;;;13.46;86.12;99319.34;4984930;28;20240;-66
2022/10/04 11:23:22;;;;;;;0.00;0.00;;;;;;;13.06;88.92;99310.97;4985212;28;20240;-66
2022/10/04 11:26:19;;;;;;;0.00;0.00;;;;;;;13.19;89.27;99317.63;4984969;28;20266;-66
2022/10/04 11:28:55;;;;;;;0.00;0.00;;;;;;;12.83;91.21;99319.25;4986060;28;20233;-66
2022/10/04 11:31:59;;;;;;;0.00;0.00;;;;;;;13.02;92.37;99311.44;4986530;28;20249;-66
2022/10/04 11:35:07;;;;;;;0.00;0.00;;;;;;;12.91;92.04;99300.19;4985344;28;20226;-66
2022/10/04 11:37:52;;;;;;;0.00;0.00;;;;;;;13.05;92.89;99301.47;4984736;28;20291;-66
2022/10/04 11:40:38;;;;;;;0.00;0.00;;;;;;;13.26;93.76;99300.31;4984869;28;20256;-66
2022/10/04 11:43:24;;;;;;;0.00;0.00;;;;;;;13.43;90.24;99306.53;4985611;28;20232;-66
2022/10/04 11:46:04;;;;;;;0.00;0.00;;;;;;;13.45;90.06;99298.53;4986773;28;20235;-66
2022/10/04 11:48:43;;;;;;;0.00;0.00;;;;;;;13.53;91.00;99301.22;4959168;28;20258;-66
2022/10/04 11:51:46;;;;;;;0.00;0.00;;;;;;;13.54;87.77;99298.44;4986107;28;20239;-66
2022/10/04 11:54:40;;;;;;;0.00;0.00;;;;;;;13.36;87.01;99300.22;4975402;28;20764;-66
2022/10/04 11:57:20;;;;;;;0.00;0.00;;;;;;;13.38;88.92;99293.03;4984676;28;20220;-66
2022/10/04 11:59:58;;;;;;;0.00;0.00;;;;;;;13.22;89.00;99293.75;4988458;28;20232;-66
2022/10/04 12:02:59;;;;;;;0.00;0.00;;;;;;;13.39;88.23;99303.38;4984364;28;20319;-66
2022/10/04 12:06:02;;;;;;;0.00;0.00;;;;;;;13.42;87.57;99295.25;4985347;28;20303;-66
2022/10/04 12:08:47;;;;;;;0.00;0.00;;;;;;;13.57;87.40;99297.31;4984693;28;20319;-66
2022/10/04 12:14:43;;;;;;;0.00;0.00;;;;;;;13.83;85.60;99291.22;4983440;28;20243;-66
2022/10/04 12:18:05;;;;;;;0.00;0.00;;;;;;;13.82;82.71;99287.78;4983486;28;20800;-66
2022/10/04 12:20:52;;;;;;;0.00;0.00;;;;;;;14.11;85.25;99288.41;4982673;28;20239;-66
2022/10/04 12:23:35;;;;;;;0.00;0.00;;;;;;;14.12;83.35;99297.94;4983955;28;20240;-66
2022/10/04 12:26:31;;;;;;;0.00;0.00;;;;;;;14.14;82.08;99286.31;4984392;28;20267;-66
2022/10/04 12:29:17;;;;;;;0.00;0.00;;;;;;;14.25;82.49;99292.25;4975898;28;20220;-66
2022/10/04 12:31:52;;;;;;;0.00;0.00;;;;;;;14.20;80.82;99289.28;4986092;28;20599;-66
2022/10/04 12:34:26;;;;;;;0.00;0.00;;;;;;;14.30;81.53;99282.91;4983271;28;20229;-66
2022/10/04 12:37:12;;;;;;;0.00;0.00;;;;;;;14.48;80.72;99276.75;4985777;28;20244;-66
2022/10/04 12:39:51;;;;;;;0.00;0.00;;;;;;;14.50;80.61;99272.16;4984355;28;20280;-66
2022/10/04 12:42:32;;;;;;;0.00;0.00;;;;;;;14.51;81.38;99271.16;4983554;28;20240;-66